Hockessin, Delaware
Current Conditions -  °F | °C
As of 11:51 AM on Thursday 23 Oct 2014 (Local Time) from KILG Reporting Station
Overcast Overcast  
Wind Chill: 55°   Ceiling: 4600
Heat Index: 55°   Visibility: 10mi
Dew Point: 47°   Wind: 20mph
Humidity: 74%   Direction: 320°NW
Pressure: 29.81"   Gusts: 25mph
Location:  39.79°N, 75.69°W
Report Text: KILG 231551Z 32017G22KT 10SM BKN046 OVC065 13/08 A2981 RMK AO2 RAE23B40E50 SLP094 P0000 T01280083
Loading
Personal Weather Stations






























Interactive Weather Map
Tropical Storm Tracking
New forecast layout! Learn more

10-Day Weather Forecast

Advertisements
Track Severe Weather on mobile